sensor_id;sensor_type;location;lat;lon;timestamp;P1;durP1;ratioP1;P2;durP2;ratioP2
33206;SDS011;19565;46.602;11.534;2023-05-08T00:00:55;0.63;;;0.63;;
33206;SDS011;19565;46.602;11.534;2023-05-08T00:03:25;0.40;;;0.40;;
33206;SDS011;19565;46.602;11.534;2023-05-08T00:05:53;0.40;;;0.40;;
33206;SDS011;19565;46.602;11.534;2023-05-08T00:08:22;0.95;;;0.93;;
33206;SDS011;19565;46.602;11.534;2023-05-08T00:10:50;0.35;;;0.35;;
33206;SDS011;19565;46.602;11.534;2023-05-08T00:13:18;0.25;;;0.25;;
33206;SDS011;19565;46.602;11.534;2023-05-08T00:15:46;0.65;;;0.65;;
33206;SDS011;19565;46.602;11.534;2023-05-08T00:18:14;0.52;;;0.50;;
33206;SDS011;19565;46.602;11.534;2023-05-08T00:20:44;0.55;;;0.55;;
33206;SDS011;19565;46.602;11.534;2023-05-08T00:23:12;0.40;;;0.40;;
33206;SDS011;19565;46.602;11.534;2023-05-08T00:25:40;0.88;;;0.88;;
33206;SDS011;19565;46.602;11.534;2023-05-08T00:28:08;0.82;;;0.65;;
33206;SDS011;19565;46.602;11.534;2023-05-08T00:30:36;1.00;;;0.80;;
33206;SDS011;19565;46.602;11.534;2023-05-08T00:33:04;0.28;;;0.28;;
33206;SDS011;19565;46.602;11.534;2023-05-08T00:35:32;0.60;;;0.60;;
33206;SDS011;19565;46.602;11.534;2023-05-08T00:38:01;0.30;;;0.30;;
33206;SDS011;19565;46.602;11.534;2023-05-08T00:40:29;0.90;;;0.68;;
33206;SDS011;19565;46.602;11.534;2023-05-08T00:42:57;0.60;;;0.60;;
33206;SDS011;19565;46.602;11.534;2023-05-08T00:45:25;0.57;;;0.57;;
33206;SDS011;19565;46.602;11.534;2023-05-08T00:48:01;0.25;;;0.25;;
33206;SDS011;19565;46.602;11.534;2023-05-08T00:50:30;0.40;;;0.40;;
33206;SDS011;19565;46.602;11.534;2023-05-08T00:52:59;1.80;;;1.70;;
33206;SDS011;19565;46.602;11.534;2023-05-08T00:55:30;0.88;;;0.88;;
33206;SDS011;19565;46.602;11.534;2023-05-08T00:57:59;0.38;;;0.38;;
33206;SDS011;19565;46.602;11.534;2023-05-08T01:00:27;0.20;;;0.20;;
33206;SDS011;19565;46.602;11.534;2023-05-08T01:02:56;0.20;;;0.20;;
33206;SDS011;19565;46.602;11.534;2023-05-08T01:05:25;0.40;;;0.40;;
33206;SDS011;19565;46.602;11.534;2023-05-08T01:07:53;1.05;;;1.05;;
33206;SDS011;19565;46.602;11.534;2023-05-08T01:10:21;0.88;;;0.82;;
33206;SDS011;19565;46.602;11.534;2023-05-08T01:12:55;0.60;;;0.60;;
33206;SDS011;19565;46.602;11.534;2023-05-08T01:15:40;0.28;;;0.28;;
33206;SDS011;19565;46.602;11.534;2023-05-08T01:18:15;0.28;;;0.28;;
33206;SDS011;19565;46.602;11.534;2023-05-08T01:20:48;0.75;;;0.75;;
33206;SDS011;19565;46.602;11.534;2023-05-08T01:23:29;0.20;;;0.20;;
33206;SDS011;19565;46.602;11.534;2023-05-08T01:29:28;0.40;;;0.40;;
33206;SDS011;19565;46.602;11.534;2023-05-08T01:32:30;0.52;;;0.50;;
33206;SDS011;19565;46.602;11.534;2023-05-08T01:35:06;0.75;;;0.50;;
33206;SDS011;19565;46.602;11.534;2023-05-08T01:37:45;0.30;;;0.30;;
33206;SDS011;19565;46.602;11.534;2023-05-08T01:40:18;0.50;;;0.50;;
33206;SDS011;19565;46.602;11.534;2023-05-08T01:42:52;1.02;;;1.02;;
33206;SDS011;19565;46.602;11.534;2023-05-08T01:45:30;0.40;;;0.40;;
33206;SDS011;19565;46.602;11.534;2023-05-08T01:48:04;2.57;;;1.13;;
33206;SDS011;19565;46.602;11.534;2023-05-08T01:50:37;0.20;;;0.20;;
33206;SDS011;19565;46.602;11.534;2023-05-08T01:53:13;0.80;;;0.80;;
33206;SDS011;19565;46.602;11.534;2023-05-08T01:55:46;0.87;;;0.87;;
33206;SDS011;19565;46.602;11.534;2023-05-08T01:58:16;0.90;;;0.90;;
33206;SDS011;19565;46.602;11.534;2023-05-08T02:00:45;0.30;;;0.30;;
33206;SDS011;19565;46.602;11.534;2023-05-08T02:03:16;0.60;;;0.60;;
33206;SDS011;19565;46.602;11.534;2023-05-08T02:05:47;0.60;;;0.23;;
33206;SDS011;19565;46.602;11.534;2023-05-08T02:08:16;0.40;;;0.40;;
33206;SDS011;19565;46.602;11.534;2023-05-08T02:10:47;0.30;;;0.30;;
33206;SDS011;19565;46.602;11.534;2023-05-08T02:13:17;2.20;;;1.17;;
33206;SDS011;19565;46.602;11.534;2023-05-08T02:15:47;0.30;;;0.30;;
33206;SDS011;19565;46.602;11.534;2023-05-08T02:18:19;0.60;;;0.50;;
33206;SDS011;19565;46.602;11.534;2023-05-08T02:20:48;0.93;;;0.93;;
33206;SDS011;19565;46.602;11.534;2023-05-08T02:23:18;0.53;;;0.50;;
33206;SDS011;19565;46.602;11.534;2023-05-08T02:25:48;0.87;;;0.50;;
33206;SDS011;19565;46.602;11.534;2023-05-08T02:28:18;0.20;;;0.20;;
33206;SDS011;19565;46.602;11.534;2023-05-08T02:30:46;0.95;;;0.90;;
33206;SDS011;19565;46.602;11.534;2023-05-08T02:33:17;0.38;;;0.38;;
33206;SDS011;19565;46.602;11.534;2023-05-08T02:35:48;0.98;;;0.60;;
33206;SDS011;19565;46.602;11.534;2023-05-08T02:38:18;0.28;;;0.28;;
33206;SDS011;19565;46.602;11.534;2023-05-08T02:40:48;0.40;;;0.40;;
33206;SDS011;19565;46.602;11.534;2023-05-08T02:43:21;0.35;;;0.35;;
33206;SDS011;19565;46.602;11.534;2023-05-08T02:45:51;0.50;;;0.50;;
33206;SDS011;19565;46.602;11.534;2023-05-08T02:48:30;0.30;;;0.30;;
33206;SDS011;19565;46.602;11.534;2023-05-08T02:51:03;0.60;;;0.60;;
33206;SDS011;19565;46.602;11.534;2023-05-08T02:53:44;0.65;;;0.60;;
33206;SDS011;19565;46.602;11.534;2023-05-08T02:56:17;0.30;;;0.30;;
33206;SDS011;19565;46.602;11.534;2023-05-08T02:59:07;3.53;;;1.77;;
33206;SDS011;19565;46.602;11.534;2023-05-08T03:01:42;0.75;;;0.50;;
33206;SDS011;19565;46.602;11.534;2023-05-08T03:04:21;1.52;;;1.25;;
33206;SDS011;19565;46.602;11.534;2023-05-08T03:06:53;0.50;;;0.50;;
33206;SDS011;19565;46.602;11.534;2023-05-08T03:09:25;0.60;;;0.60;;
33206;SDS011;19565;46.602;11.534;2023-05-08T03:12:11;0.30;;;0.30;;
33206;SDS011;19565;46.602;11.534;2023-05-08T03:14:43;0.80;;;0.80;;
33206;SDS011;19565;46.602;11.534;2023-05-08T03:17:18;1.23;;;0.73;;
33206;SDS011;19565;46.602;11.534;2023-05-08T03:19:49;0.50;;;0.50;;
33206;SDS011;19565;46.602;11.534;2023-05-08T03:22:22;0.40;;;0.40;;
33206;SDS011;19565;46.602;11.534;2023-05-08T03:24:52;0.80;;;0.80;;
33206;SDS011;19565;46.602;11.534;2023-05-08T03:27:22;0.40;;;0.40;;
33206;SDS011;19565;46.602;11.534;2023-05-08T03:29:52;1.02;;;1.00;;
33206;SDS011;19565;46.602;11.534;2023-05-08T03:32:23;1.45;;;0.93;;
33206;SDS011;19565;46.602;11.534;2023-05-08T03:34:55;0.35;;;0.35;;
33206;SDS011;19565;46.602;11.534;2023-05-08T03:37:25;0.80;;;0.80;;
33206;SDS011;19565;46.602;11.534;2023-05-08T03:39:54;0.65;;;0.40;;
33206;SDS011;19565;46.602;11.534;2023-05-08T03:42:22;0.30;;;0.30;;
33206;SDS011;19565;46.602;11.534;2023-05-08T03:44:52;1.10;;;1.05;;
33206;SDS011;19565;46.602;11.534;2023-05-08T03:47:20;0.52;;;0.52;;
33206;SDS011;19565;46.602;11.534;2023-05-08T03:49:51;0.57;;;0.52;;
33206;SDS011;19565;46.602;11.534;2023-05-08T03:52:20;0.30;;;0.30;;
33206;SDS011;19565;46.602;11.534;2023-05-08T03:54:50;0.75;;;0.75;;
33206;SDS011;19565;46.602;11.534;2023-05-08T03:57:18;0.95;;;0.88;;
33206;SDS011;19565;46.602;11.534;2023-05-08T03:59:49;0.85;;;0.85;;
33206;SDS011;19565;46.602;11.534;2023-05-08T04:02:27;0.40;;;0.40;;
33206;SDS011;19565;46.602;11.534;2023-05-08T04:05:01;1.02;;;0.70;;
33206;SDS011;19565;46.602;11.534;2023-05-08T04:07:41;0.30;;;0.30;;
33206;SDS011;19565;46.602;11.534;2023-05-08T04:10:15;0.60;;;0.60;;
33206;SDS011;19565;46.602;11.534;2023-05-08T04:13:01;1.73;;;1.00;;
33206;SDS011;19565;46.602;11.534;2023-05-08T04:15:37;0.65;;;0.65;;
33206;SDS011;19565;46.602;11.534;2023-05-08T04:18:11;1.17;;;1.05;;
33206;SDS011;19565;46.602;11.534;2023-05-08T04:20:45;0.32;;;0.30;;
33206;SDS011;19565;46.602;11.534;2023-05-08T04:23:17;1.55;;;1.08;;
33206;SDS011;19565;46.602;11.534;2023-05-08T04:25:47;1.23;;;1.13;;
33206;SDS011;19565;46.602;11.534;2023-05-08T04:28:17;0.65;;;0.65;;
33206;SDS011;19565;46.602;11.534;2023-05-08T04:30:46;1.23;;;1.13;;
33206;SDS011;19565;46.602;11.534;2023-05-08T04:33:14;1.20;;;1.10;;
33206;SDS011;19565;46.602;11.534;2023-05-08T04:35:43;4.55;;;0.93;;
33206;SDS011;19565;46.602;11.534;2023-05-08T04:38:12;0.52;;;0.50;;
33206;SDS011;19565;46.602;11.534;2023-05-08T04:40:41;0.65;;;0.65;;
33206;SDS011;19565;46.602;11.534;2023-05-08T04:43:09;0.52;;;0.52;;
33206;SDS011;19565;46.602;11.534;2023-05-08T04:45:37;0.70;;;0.70;;
33206;SDS011;19565;46.602;11.534;2023-05-08T04:48:05;0.40;;;0.40;;
33206;SDS011;19565;46.602;11.534;2023-05-08T04:50:33;0.57;;;0.57;;
33206;SDS011;19565;46.602;11.534;2023-05-08T04:53:01;0.60;;;0.60;;
33206;SDS011;19565;46.602;11.534;2023-05-08T04:55:29;2.03;;;1.70;;
33206;SDS011;19565;46.602;11.534;2023-05-08T04:57:59;1.33;;;1.23;;
33206;SDS011;19565;46.602;11.534;2023-05-08T05:00:27;8.57;;;1.90;;
33206;SDS011;19565;46.602;11.534;2023-05-08T05:02:55;0.67;;;0.63;;
33206;SDS011;19565;46.602;11.534;2023-05-08T05:05:23;0.57;;;0.57;;
33206;SDS011;19565;46.602;11.534;2023-05-08T05:07:51;0.47;;;0.43;;
33206;SDS011;19565;46.602;11.534;2023-05-08T05:10:19;1.00;;;0.90;;
33206;SDS011;19565;46.602;11.534;2023-05-08T05:12:48;0.20;;;0.20;;
33206;SDS011;19565;46.602;11.534;2023-05-08T05:15:17;0.40;;;0.40;;
33206;SDS011;19565;46.602;11.534;2023-05-08T05:17:45;1.20;;;1.00;;
33206;SDS011;19565;46.602;11.534;2023-05-08T05:20:13;2.07;;;0.63;;
33206;SDS011;19565;46.602;11.534;2023-05-08T05:22:41;0.37;;;0.37;;
33206;SDS011;19565;46.602;11.534;2023-05-08T05:25:10;2.47;;;0.97;;
33206;SDS011;19565;46.602;11.534;2023-05-08T05:27:38;0.93;;;0.87;;
33206;SDS011;19565;46.602;11.534;2023-05-08T05:30:07;3.40;;;0.80;;
33206;SDS011;19565;46.602;11.534;2023-05-08T05:32:36;1.03;;;1.03;;
33206;SDS011;19565;46.602;11.534;2023-05-08T05:35:05;1.70;;;1.43;;
33206;SDS011;19565;46.602;11.534;2023-05-08T05:37:34;0.67;;;0.67;;
33206;SDS011;19565;46.602;11.534;2023-05-08T05:40:03;1.83;;;0.80;;
33206;SDS011;19565;46.602;11.534;2023-05-08T05:42:34;1.33;;;0.93;;
33206;SDS011;19565;46.602;11.534;2023-05-08T05:45:03;1.30;;;0.83;;
33206;SDS011;19565;46.602;11.534;2023-05-08T05:47:31;0.30;;;0.30;;
33206;SDS011;19565;46.602;11.534;2023-05-08T05:50:01;1.65;;;1.10;;
33206;SDS011;19565;46.602;11.534;2023-05-08T05:52:29;1.15;;;1.08;;
33206;SDS011;19565;46.602;11.534;2023-05-08T05:54:58;0.82;;;0.80;;
33206;SDS011;19565;46.602;11.534;2023-05-08T05:57:26;1.02;;;0.95;;
33206;SDS011;19565;46.602;11.534;2023-05-08T05:59:54;0.98;;;0.85;;
33206;SDS011;19565;46.602;11.534;2023-05-08T06:02:22;1.23;;;1.05;;
33206;SDS011;19565;46.602;11.534;2023-05-08T06:04:50;2.20;;;2.05;;
33206;SDS011;19565;46.602;11.534;2023-05-08T06:07:20;0.65;;;0.65;;
33206;SDS011;19565;46.602;11.534;2023-05-08T06:09:48;1.08;;;0.98;;
33206;SDS011;19565;46.602;11.534;2023-05-08T06:12:16;0.70;;;0.70;;
33206;SDS011;19565;46.602;11.534;2023-05-08T06:14:44;1.02;;;0.73;;
33206;SDS011;19565;46.602;11.534;2023-05-08T06:17:12;0.95;;;0.82;;
33206;SDS011;19565;46.602;11.534;2023-05-08T06:19:41;0.60;;;0.60;;
33206;SDS011;19565;46.602;11.534;2023-05-08T06:22:09;1.45;;;1.35;;
33206;SDS011;19565;46.602;11.534;2023-05-08T06:24:38;1.67;;;0.73;;
33206;SDS011;19565;46.602;11.534;2023-05-08T06:27:10;7.32;;;1.50;;
33206;SDS011;19565;46.602;11.534;2023-05-08T06:29:38;3.03;;;0.52;;
33206;SDS011;19565;46.602;11.534;2023-05-08T06:32:06;1.73;;;1.48;;
33206;SDS011;19565;46.602;11.534;2023-05-08T06:34:34;0.88;;;0.88;;
33206;SDS011;19565;46.602;11.534;2023-05-08T06:37:02;2.95;;;1.70;;
33206;SDS011;19565;46.602;11.534;2023-05-08T06:39:30;0.50;;;0.50;;
33206;SDS011;19565;46.602;11.534;2023-05-08T06:42:00;1.80;;;1.08;;
33206;SDS011;19565;46.602;11.534;2023-05-08T06:44:28;0.60;;;0.60;;
33206;SDS011;19565;46.602;11.534;2023-05-08T06:46:56;0.40;;;0.40;;
33206;SDS011;19565;46.602;11.534;2023-05-08T06:49:24;0.70;;;0.70;;
33206;SDS011;19565;46.602;11.534;2023-05-08T06:51:52;1.27;;;1.02;;
33206;SDS011;19565;46.602;11.534;2023-05-08T06:54:23;0.93;;;0.93;;
33206;SDS011;19565;46.602;11.534;2023-05-08T06:56:51;0.50;;;0.50;;
33206;SDS011;19565;46.602;11.534;2023-05-08T06:59:20;1.17;;;0.80;;
33206;SDS011;19565;46.602;11.534;2023-05-08T07:01:49;0.50;;;0.50;;
33206;SDS011;19565;46.602;11.534;2023-05-08T07:04:17;2.67;;;2.47;;
33206;SDS011;19565;46.602;11.534;2023-05-08T07:06:45;1.38;;;1.27;;
33206;SDS011;19565;46.602;11.534;2023-05-08T07:09:13;0.68;;;0.68;;
33206;SDS011;19565;46.602;11.534;2023-05-08T07:11:44;1.40;;;0.88;;
33206;SDS011;19565;46.602;11.534;2023-05-08T07:14:13;0.30;;;0.30;;
33206;SDS011;19565;46.602;11.534;2023-05-08T07:16:43;0.40;;;0.40;;
33206;SDS011;19565;46.602;11.534;2023-05-08T07:19:11;0.85;;;0.85;;
33206;SDS011;19565;46.602;11.534;2023-05-08T07:21:39;0.82;;;0.82;;
33206;SDS011;19565;46.602;11.534;2023-05-08T07:24:07;1.95;;;1.58;;
33206;SDS011;19565;46.602;11.534;2023-05-08T07:26:35;1.00;;;1.00;;
33206;SDS011;19565;46.602;11.534;2023-05-08T07:29:03;1.10;;;0.82;;
33206;SDS011;19565;46.602;11.534;2023-05-08T07:31:31;1.05;;;0.95;;
33206;SDS011;19565;46.602;11.534;2023-05-08T07:34:00;1.65;;;1.55;;
33206;SDS011;19565;46.602;11.534;2023-05-08T07:36:28;1.13;;;0.82;;
33206;SDS011;19565;46.602;11.534;2023-05-08T07:38:56;1.38;;;0.90;;
33206;SDS011;19565;46.602;11.534;2023-05-08T07:41:24;1.65;;;1.00;;
33206;SDS011;19565;46.602;11.534;2023-05-08T07:43:52;1.35;;;0.80;;
33206;SDS011;19565;46.602;11.534;2023-05-08T07:46:20;0.88;;;0.88;;
33206;SDS011;19565;46.602;11.534;2023-05-08T07:48:49;5.90;;;0.95;;
33206;SDS011;19565;46.602;11.534;2023-05-08T07:51:18;1.17;;;1.13;;
33206;SDS011;19565;46.602;11.534;2023-05-08T07:53:46;0.73;;;0.73;;
33206;SDS011;19565;46.602;11.534;2023-05-08T07:56:16;5.32;;;0.93;;
33206;SDS011;19565;46.602;11.534;2023-05-08T07:58:44;0.60;;;0.60;;
33206;SDS011;19565;46.602;11.534;2023-05-08T08:01:13;1.85;;;0.93;;
33206;SDS011;19565;46.602;11.534;2023-05-08T08:03:43;1.13;;;1.10;;
33206;SDS011;19565;46.602;11.534;2023-05-08T08:06:11;1.85;;;1.42;;
33206;SDS011;19565;46.602;11.534;2023-05-08T08:08:41;1.95;;;1.85;;
33206;SDS011;19565;46.602;11.534;2023-05-08T08:11:09;0.60;;;0.60;;
33206;SDS011;19565;46.602;11.534;2023-05-08T08:13:37;1.58;;;1.40;;
33206;SDS011;19565;46.602;11.534;2023-05-08T08:16:05;0.80;;;0.80;;
33206;SDS011;19565;46.602;11.534;2023-05-08T08:18:33;0.80;;;0.80;;
33206;SDS011;19565;46.602;11.534;2023-05-08T08:21:03;0.90;;;0.90;;
33206;SDS011;19565;46.602;11.534;2023-05-08T08:23:32;1.90;;;1.25;;
33206;SDS011;19565;46.602;11.534;2023-05-08T08:26:02;1.10;;;1.00;;
33206;SDS011;19565;46.602;11.534;2023-05-08T08:28:30;1.92;;;1.77;;
33206;SDS011;19565;46.602;11.534;2023-05-08T08:30:58;1.45;;;1.38;;
33206;SDS011;19565;46.602;11.534;2023-05-08T08:33:26;2.00;;;1.90;;
33206;SDS011;19565;46.602;11.534;2023-05-08T08:35:54;0.90;;;0.90;;
33206;SDS011;19565;46.602;11.534;2023-05-08T08:38:23;1.00;;;1.00;;
33206;SDS011;19565;46.602;11.534;2023-05-08T08:40:51;1.88;;;1.77;;
33206;SDS011;19565;46.602;11.534;2023-05-08T08:43:20;0.95;;;0.95;;
33206;SDS011;19565;46.602;11.534;2023-05-08T08:45:48;1.35;;;1.35;;
33206;SDS011;19565;46.602;11.534;2023-05-08T08:48:16;1.50;;;1.50;;
33206;SDS011;19565;46.602;11.534;2023-05-08T08:50:46;1.67;;;1.58;;
33206;SDS011;19565;46.602;11.534;2023-05-08T08:53:20;1.40;;;1.40;;
33206;SDS011;19565;46.602;11.534;2023-05-08T08:55:52;2.25;;;2.13;;
33206;SDS011;19565;46.602;11.534;2023-05-08T08:58:26;2.10;;;2.00;;
33206;SDS011;19565;46.602;11.534;2023-05-08T09:01:03;2.08;;;1.98;;
33206;SDS011;19565;46.602;11.534;2023-05-08T09:03:33;4.75;;;4.45;;
33206;SDS011;19565;46.602;11.534;2023-05-08T09:06:01;2.25;;;2.15;;
33206;SDS011;19565;46.602;11.534;2023-05-08T09:08:29;2.25;;;2.15;;
33206;SDS011;19565;46.602;11.534;2023-05-08T09:10:58;2.97;;;2.78;;
33206;SDS011;19565;46.602;11.534;2023-05-08T09:13:29;2.72;;;2.63;;
33206;SDS011;19565;46.602;11.534;2023-05-08T09:15:58;4.47;;;4.18;;
33206;SDS011;19565;46.602;11.534;2023-05-08T09:18:26;2.20;;;2.10;;
33206;SDS011;19565;46.602;11.534;2023-05-08T09:20:54;2.15;;;2.05;;
33206;SDS011;19565;46.602;11.534;2023-05-08T09:23:23;2.83;;;2.55;;
33206;SDS011;19565;46.602;11.534;2023-05-08T09:25:51;2.63;;;2.47;;
33206;SDS011;19565;46.602;11.534;2023-05-08T09:28:20;2.10;;;2.00;;
33206;SDS011;19565;46.602;11.534;2023-05-08T09:30:52;2.67;;;2.47;;
33206;SDS011;19565;46.602;11.534;2023-05-08T09:33:22;2.50;;;2.40;;
33206;SDS011;19565;46.602;11.534;2023-05-08T09:35:51;4.13;;;3.78;;
33206;SDS011;19565;46.602;11.534;2023-05-08T09:38:32;3.92;;;3.72;;
33206;SDS011;19565;46.602;11.534;2023-05-08T09:41:07;4.88;;;4.57;;
33206;SDS011;19565;46.602;11.534;2023-05-08T09:43:36;6.45;;;6.05;;
33206;SDS011;19565;46.602;11.534;2023-05-08T09:46:22;9.13;;;8.63;;
33206;SDS011;19565;46.602;11.534;2023-05-08T09:48:51;8.80;;;8.30;;
33206;SDS011;19565;46.602;11.534;2023-05-08T09:51:20;10.90;;;10.30;;
33206;SDS011;19565;46.602;11.534;2023-05-08T09:53:49;16.65;;;15.85;;
33206;SDS011;19565;46.602;11.534;2023-05-08T09:56:28;16.23;;;15.32;;
33206;SDS011;19565;46.602;11.534;2023-05-08T09:58:57;18.58;;;17.67;;
33206;SDS011;19565;46.602;11.534;2023-05-08T10:01:31;15.45;;;14.70;;
33206;SDS011;19565;46.602;11.534;2023-05-08T10:04:00;22.67;;;21.67;;
33206;SDS011;19565;46.602;11.534;2023-05-08T10:06:29;17.30;;;16.50;;
33206;SDS011;19565;46.602;11.534;2023-05-08T10:09:07;20.63;;;19.63;;
33206;SDS011;19565;46.602;11.534;2023-05-08T10:11:36;18.27;;;17.38;;
33206;SDS011;19565;46.602;11.534;2023-05-08T10:14:05;18.50;;;17.60;;
33206;SDS011;19565;46.602;11.534;2023-05-08T10:16:39;18.10;;;17.20;;
33206;SDS011;19565;46.602;11.534;2023-05-08T10:19:11;18.50;;;17.60;;
33206;SDS011;19565;46.602;11.534;2023-05-08T10:21:41;19.55;;;18.65;;
33206;SDS011;19565;46.602;11.534;2023-05-08T10:24:13;20.08;;;19.08;;
33206;SDS011;19565;46.602;11.534;2023-05-08T10:26:44;20.55;;;19.55;;
33206;SDS011;19565;46.602;11.534;2023-05-08T10:29:33;20.05;;;19.08;;
33206;SDS011;19565;46.602;11.534;2023-05-08T10:32:09;20.80;;;19.80;;
33206;SDS011;19565;46.602;11.534;2023-05-08T10:34:39;20.70;;;19.70;;
33206;SDS011;19565;46.602;11.534;2023-05-08T10:37:08;19.85;;;18.95;;
33206;SDS011;19565;46.602;11.534;2023-05-08T10:39:37;20.60;;;19.60;;
33206;SDS011;19565;46.602;11.534;2023-05-08T10:42:06;19.80;;;18.90;;
33206;SDS011;19565;46.602;11.534;2023-05-08T10:44:34;20.98;;;19.98;;
33206;SDS011;19565;46.602;11.534;2023-05-08T10:47:07;22.80;;;21.70;;
33206;SDS011;19565;46.602;11.534;2023-05-08T10:49:42;21.20;;;20.20;;
33206;SDS011;19565;46.602;11.534;2023-05-08T10:52:20;23.15;;;22.05;;
33206;SDS011;19565;46.602;11.534;2023-05-08T10:55:05;22.52;;;21.52;;
33206;SDS011;19565;46.602;11.534;2023-05-08T11:03:41;29.98;;;28.67;;
33206;SDS011;19565;46.602;11.534;2023-05-08T11:06:16;31.05;;;29.48;;
33206;SDS011;19565;46.602;11.534;2023-05-08T11:09:04;25.73;;;24.63;;
33206;SDS011;19565;46.602;11.534;2023-05-08T11:11:33;27.30;;;26.10;;
33206;SDS011;19565;46.602;11.534;2023-05-08T11:14:11;27.50;;;26.30;;
33206;SDS011;19565;46.602;11.534;2023-05-08T11:19:36;31.73;;;30.42;;
33206;SDS011;19565;46.602;11.534;2023-05-08T11:22:15;22.90;;;21.88;;
33206;SDS011;19565;46.602;11.534;2023-05-08T11:24:55;28.20;;;26.90;;
33206;SDS011;19565;46.602;11.534;2023-05-08T11:30:35;22.92;;;21.92;;
33206;SDS011;19565;46.602;11.534;2023-05-08T11:33:11;23.52;;;22.42;;
33206;SDS011;19565;46.602;11.534;2023-05-08T11:35:43;22.95;;;21.80;;
33206;SDS011;19565;46.602;11.534;2023-05-08T11:38:15;22.85;;;21.85;;
33206;SDS011;19565;46.602;11.534;2023-05-08T11:40:46;23.45;;;22.38;;
33206;SDS011;19565;46.602;11.534;2023-05-08T11:43:18;23.90;;;22.80;;
33206;SDS011;19565;46.602;11.534;2023-05-08T11:46:14;23.10;;;22.08;;
33206;SDS011;19565;46.602;11.534;2023-05-08T11:48:43;27.25;;;26.05;;
33206;SDS011;19565;46.602;11.534;2023-05-08T11:51:15;25.67;;;24.58;;
33206;SDS011;19565;46.602;11.534;2023-05-08T11:53:44;34.22;;;32.72;;
33206;SDS011;19565;46.602;11.534;2023-05-08T11:56:13;37.22;;;35.72;;
33206;SDS011;19565;46.602;11.534;2023-05-08T11:58:41;36.88;;;35.28;;
33206;SDS011;19565;46.602;11.534;2023-05-08T12:01:09;40.97;;;39.28;;
33206;SDS011;19565;46.602;11.534;2023-05-08T12:03:43;34.78;;;33.28;;
33206;SDS011;19565;46.602;11.534;2023-05-08T12:06:12;27.48;;;26.27;;
33206;SDS011;19565;46.602;11.534;2023-05-08T12:08:40;33.78;;;32.38;;
33206;SDS011;19565;46.602;11.534;2023-05-08T12:11:08;27.73;;;26.52;;
33206;SDS011;19565;46.602;11.534;2023-05-08T12:13:36;29.75;;;28.45;;
33206;SDS011;19565;46.602;11.534;2023-05-08T12:16:05;26.13;;;25.00;;
33206;SDS011;19565;46.602;11.534;2023-05-08T12:18:33;28.65;;;27.35;;
33206;SDS011;19565;46.602;11.534;2023-05-08T12:21:05;28.15;;;26.95;;
33206;SDS011;19565;46.602;11.534;2023-05-08T12:23:35;29.65;;;28.35;;
33206;SDS011;19565;46.602;11.534;2023-05-08T12:26:03;29.95;;;28.65;;
33206;SDS011;19565;46.602;11.534;2023-05-08T12:28:31;35.60;;;34.10;;
33206;SDS011;19565;46.602;11.534;2023-05-08T12:30:59;31.30;;;29.90;;
33206;SDS011;19565;46.602;11.534;2023-05-08T12:33:28;33.83;;;32.42;;
33206;SDS011;19565;46.602;11.534;2023-05-08T12:35:56;36.03;;;34.53;;
33206;SDS011;19565;46.602;11.534;2023-05-08T12:38:24;39.80;;;38.17;;
33206;SDS011;19565;46.602;11.534;2023-05-08T12:40:54;36.47;;;34.97;;
33206;SDS011;19565;46.602;11.534;2023-05-08T12:43:29;35.28;;;33.78;;
33206;SDS011;19565;46.602;11.534;2023-05-08T12:45:58;32.03;;;30.63;;
33206;SDS011;19565;46.602;11.534;2023-05-08T12:48:26;37.10;;;35.50;;
33206;SDS011;19565;46.602;11.534;2023-05-08T12:50:54;38.88;;;37.17;;
33206;SDS011;19565;46.602;11.534;2023-05-08T12:53:29;43.40;;;41.60;;
33206;SDS011;19565;46.602;11.534;2023-05-08T12:56:01;35.53;;;34.03;;
33206;SDS011;19565;46.602;11.534;2023-05-08T12:58:31;41.05;;;39.35;;
33206;SDS011;19565;46.602;11.534;2023-05-08T13:01:03;34.55;;;33.08;;
33206;SDS011;19565;46.602;11.534;2023-05-08T13:03:35;39.42;;;37.72;;
33206;SDS011;19565;46.602;11.534;2023-05-08T13:06:04;26.65;;;25.45;;
33206;SDS011;19565;46.602;11.534;2023-05-08T13:08:33;27.58;;;26.38;;
33206;SDS011;19565;46.602;11.534;2023-05-08T13:11:04;31.48;;;30.08;;
33206;SDS011;19565;46.602;11.534;2023-05-08T13:13:33;32.00;;;30.63;;
33206;SDS011;19565;46.602;11.534;2023-05-08T13:16:02;33.10;;;31.70;;
33206;SDS011;19565;46.602;11.534;2023-05-08T13:18:32;30.27;;;28.98;;
33206;SDS011;19565;46.602;11.534;2023-05-08T13:21:01;31.30;;;30.00;;
33206;SDS011;19565;46.602;11.534;2023-05-08T13:23:30;40.75;;;39.05;;
33206;SDS011;19565;46.602;11.534;2023-05-08T13:25:58;41.45;;;39.78;;
33206;SDS011;19565;46.602;11.534;2023-05-08T13:28:27;32.03;;;30.73;;
33206;SDS011;19565;46.602;11.534;2023-05-08T13:30:55;16.83;;;15.93;;
33206;SDS011;19565;46.602;11.534;2023-05-08T13:33:23;15.73;;;14.93;;
33206;SDS011;19565;46.602;11.534;2023-05-08T13:35:52;13.20;;;12.50;;
33206;SDS011;19565;46.602;11.534;2023-05-08T13:38:20;5.50;;;5.20;;
33206;SDS011;19565;46.602;11.534;2023-05-08T13:40:48;4.63;;;4.22;;
33206;SDS011;19565;46.602;11.534;2023-05-08T13:43:17;4.05;;;3.75;;
33206;SDS011;19565;46.602;11.534;2023-05-08T13:45:46;2.28;;;2.17;;
33206;SDS011;19565;46.602;11.534;2023-05-08T13:48:14;2.13;;;2.03;;
33206;SDS011;19565;46.602;11.534;2023-05-08T13:50:42;2.03;;;1.67;;
33206;SDS011;19565;46.602;11.534;2023-05-08T13:53:10;8.20;;;1.63;;
33206;SDS011;19565;46.602;11.534;2023-05-08T13:55:38;1.90;;;1.80;;
33206;SDS011;19565;46.602;11.534;2023-05-08T13:58:07;1.20;;;1.10;;
33206;SDS011;19565;46.602;11.534;2023-05-08T14:00:35;1.10;;;1.10;;
33206;SDS011;19565;46.602;11.534;2023-05-08T14:03:05;1.63;;;1.52;;
33206;SDS011;19565;46.602;11.534;2023-05-08T14:05:33;0.73;;;0.73;;
33206;SDS011;19565;46.602;11.534;2023-05-08T14:08:01;1.00;;;0.95;;
33206;SDS011;19565;46.602;11.534;2023-05-08T14:10:29;0.63;;;0.63;;
33206;SDS011;19565;46.602;11.534;2023-05-08T14:12:57;0.70;;;0.70;;
33206;SDS011;19565;46.602;11.534;2023-05-08T14:15:25;1.08;;;0.98;;
33206;SDS011;19565;46.602;11.534;2023-05-08T14:18:02;1.02;;;0.98;;
33206;SDS011;19565;46.602;11.534;2023-05-08T14:20:32;0.73;;;0.73;;
33206;SDS011;19565;46.602;11.534;2023-05-08T14:23:00;1.50;;;1.00;;
33206;SDS011;19565;46.602;11.534;2023-05-08T14:25:28;1.05;;;1.00;;
33206;SDS011;19565;46.602;11.534;2023-05-08T14:27:56;1.40;;;1.10;;
33206;SDS011;19565;46.602;11.534;2023-05-08T14:30:25;1.52;;;1.42;;
33206;SDS011;19565;46.602;11.534;2023-05-08T14:32:53;1.13;;;1.02;;
33206;SDS011;19565;46.602;11.534;2023-05-08T14:35:22;0.70;;;0.70;;
33206;SDS011;19565;46.602;11.534;2023-05-08T14:37:50;0.88;;;0.88;;
33206;SDS011;19565;46.602;11.534;2023-05-08T14:40:18;1.42;;;1.33;;
33206;SDS011;19565;46.602;11.534;2023-05-08T14:42:49;0.95;;;0.95;;
33206;SDS011;19565;46.602;11.534;2023-05-08T14:45:17;1.05;;;0.73;;
33206;SDS011;19565;46.602;11.534;2023-05-08T14:47:46;0.77;;;0.77;;
33206;SDS011;19565;46.602;11.534;2023-05-08T14:50:15;0.70;;;0.70;;
33206;SDS011;19565;46.602;11.534;2023-05-08T14:52:44;0.95;;;0.95;;
33206;SDS011;19565;46.602;11.534;2023-05-08T14:55:12;0.63;;;0.63;;
33206;SDS011;19565;46.602;11.534;2023-05-08T14:57:46;0.68;;;0.68;;
33206;SDS011;19565;46.602;11.534;2023-05-08T15:00:14;0.93;;;0.93;;
33206;SDS011;19565;46.602;11.534;2023-05-08T15:02:43;1.27;;;0.98;;